Leavenworth, Indiana
Current Conditions -  °F | °C
As of 2:58 AM on Saturday 29 Nov 2014 (Local Time) from KFTK Reporting Station
Few Clouds Few Clouds  
Wind Chill: 29°   Ceiling: Unl
Heat Index: 37°   Visibility: 10mi
Dew Point: 24°   Wind: 10mph
Humidity: 60%   Direction: 180°S
Pressure: 30.04"   Gusts: NA
Location:  38.2°N, 86.34°W
Report Text: KFTK 290758Z AUTO 18009KT 10SM FEW180 03/M04 A3004 RMK AO2 SLP180 T00261044
Loading
Personal Weather Stations






























Interactive Weather Map New forecast layout! Learn more

10-Day Weather Forecast

Advertisements
Track Severe Weather on mobile